createdAt,value
2018-09-20T00:03:26.606Z,99.90
2018-09-20T00:08:29.913Z,99.90
2018-09-20T00:13:33.197Z,99.90
2018-09-20T00:18:36.512Z,99.90
2018-09-20T00:23:39.817Z,99.90
2018-09-20T00:28:43.108Z,99.90
2018-09-20T00:33:46.461Z,99.90
2018-09-20T00:38:49.941Z,99.90
2018-09-20T00:43:53.664Z,99.90
2018-09-20T00:48:56.970Z,99.90
2018-09-20T00:54:00.289Z,99.90
2018-09-20T00:59:03.703Z,99.90
2018-09-20T01:09:11.084Z,99.90
2018-09-20T01:14:14.365Z,99.90
2018-09-20T01:19:17.758Z,99.90
2018-09-20T01:24:21.085Z,99.90
2018-09-20T01:29:24.413Z,99.90
2018-09-20T01:34:27.702Z,99.90
2018-09-20T01:39:31.017Z,99.90
2018-09-20T01:44:34.381Z,99.90
2018-09-20T01:49:37.666Z,99.90
2018-09-20T01:54:41.074Z,99.90
2018-09-20T01:59:44.385Z,99.90
2018-09-20T02:04:47.707Z,99.90
2018-09-20T02:09:50.994Z,99.90
2018-09-20T02:14:54.425Z,99.90
2018-09-20T02:19:57.741Z,99.90
2018-09-20T02:25:01.050Z,99.90
2018-09-20T02:30:06.946Z,99.90
2018-09-20T02:35:10.311Z,99.90
2018-09-20T02:40:13.609Z,99.90
2018-09-20T02:45:16.919Z,99.90
2018-09-20T02:50:20.282Z,99.90
2018-09-20T03:00:26.671Z,99.90
2018-09-20T03:05:30.340Z,99.90
2018-09-20T03:10:33.639Z,99.90
2018-09-20T03:15:36.993Z,99.90
2018-09-20T03:20:40.348Z,99.90
2018-09-20T03:25:43.793Z,99.90
2018-09-20T03:30:47.203Z,99.90
2018-09-20T03:35:50.376Z,99.90
2018-09-20T03:40:53.833Z,99.90
2018-09-20T03:45:57.133Z,99.90
2018-09-20T03:51:00.436Z,99.90
2018-09-20T03:56:03.738Z,99.90
2018-09-20T04:01:07.037Z,99.90
2018-09-20T04:06:10.342Z,99.90
2018-09-20T04:11:13.648Z,99.90
2018-09-20T04:16:17.149Z,99.90
2018-09-20T04:21:24.762Z,99.90
2018-09-20T04:26:28.669Z,99.90
2018-09-20T04:31:32.350Z,99.90
2018-09-20T04:36:35.673Z,99.90
2018-09-20T04:41:38.979Z,99.90
2018-09-20T04:46:42.282Z,99.90
2018-09-20T04:51:45.629Z,99.90
2018-09-20T04:56:48.934Z,99.90
2018-09-20T05:01:52.221Z,99.90
2018-09-20T05:06:55.543Z,99.90
2018-09-20T05:11:58.886Z,99.90
2018-09-20T05:17:02.243Z,99.90
2018-09-20T05:22:05.573Z,99.90
2018-09-20T05:27:08.883Z,99.90
2018-09-20T05:32:12.200Z,99.90
2018-09-20T05:37:15.548Z,99.90
2018-09-20T05:42:18.837Z,99.90
2018-09-20T05:47:22.257Z,99.90
2018-09-20T05:52:25.620Z,99.90
2018-09-20T05:57:28.922Z,99.90
2018-09-20T06:02:32.412Z,99.90
2018-09-20T06:07:35.841Z,99.90
2018-09-20T06:12:39.149Z,99.90
2018-09-20T06:17:43.582Z,99.90
2018-09-20T06:22:46.893Z,99.90
2018-09-20T06:27:50.276Z,99.90
2018-09-20T06:32:53.633Z,99.90
2018-09-20T06:37:57.111Z,99.90
2018-09-20T06:43:00.572Z,99.90
2018-09-20T06:48:03.865Z,99.90
2018-09-20T06:53:07.492Z,99.90
2018-09-20T06:58:10.780Z,99.90
2018-09-20T07:03:14.240Z,99.90
2018-09-20T07:08:17.553Z,99.90
2018-09-20T07:13:20.941Z,99.90
2018-09-20T07:18:24.356Z,99.90
2018-09-20T07:23:27.845Z,99.90
2018-09-20T07:28:31.211Z,99.90
2018-09-20T07:33:34.513Z,99.90
2018-09-20T07:38:37.802Z,99.90
2018-09-20T07:43:41.289Z,99.90
2018-09-20T07:48:44.599Z,99.90
2018-09-20T07:53:48.087Z,99.90
2018-09-20T07:58:51.600Z,99.90
2018-09-20T08:03:55.036Z,99.90
2018-09-20T08:08:58.423Z,99.90
2018-09-20T08:14:01.904Z,99.90
2018-09-20T08:19:05.234Z,99.90
2018-09-20T08:24:08.534Z,99.90
2018-09-20T08:29:11.934Z,99.90
2018-09-20T08:34:15.466Z,99.90
2018-09-20T08:39:18.940Z,99.90
2018-09-20T08:44:22.314Z,99.90
2018-09-20T08:54:30.956Z,99.90
2018-09-20T08:59:34.488Z,99.90
2018-09-20T09:04:38.092Z,99.90
2018-09-20T09:09:41.460Z,99.70
2018-09-20T09:14:44.880Z,99.00
2018-09-20T09:24:51.407Z,98.00
2018-09-20T09:29:54.756Z,98.20
2018-09-20T09:34:58.052Z,97.60
2018-09-20T09:40:01.588Z,96.40
2018-09-20T09:45:05.033Z,96.80
2018-09-20T09:50:08.383Z,97.20
2018-09-20T09:55:11.701Z,95.60
2018-09-20T10:00:15.041Z,95.10
2018-09-20T10:05:18.328Z,95.70
2018-09-20T10:10:21.725Z,94.50
2018-09-20T10:15:25.150Z,92.90
2018-09-20T10:20:28.454Z,93.20
2018-09-20T10:25:31.762Z,92.80
2018-09-20T10:30:36.121Z,91.80
2018-09-20T10:35:39.418Z,91.30
2018-09-20T10:40:42.749Z,91.20
2018-09-20T10:45:46.047Z,88.60
2018-09-20T10:50:49.344Z,88.70
2018-09-20T10:55:52.776Z,85.50
2018-09-20T11:00:56.126Z,85.60
2018-09-20T11:05:59.481Z,84.50
2018-09-20T11:11:02.992Z,86.40
2018-09-20T11:16:06.290Z,82.10
2018-09-20T11:21:09.592Z,81.90
2018-09-20T11:26:13.145Z,81.50
2018-09-20T11:31:16.521Z,82.40
2018-09-20T11:36:19.835Z,80.50
2018-09-20T11:41:23.313Z,80.00
2018-09-20T11:46:26.724Z,79.70
2018-09-20T11:51:30.077Z,80.40
2018-09-20T11:56:33.524Z,79.90
2018-09-20T12:01:36.844Z,80.40
2018-09-20T12:06:40.210Z,79.90
2018-09-20T12:11:43.662Z,81.70
2018-09-20T12:16:46.963Z,80.50
2018-09-20T12:21:50.261Z,79.40
2018-09-20T12:26:53.585Z,80.00
2018-09-20T12:31:57.092Z,79.20
2018-09-20T12:37:00.375Z,78.00
2018-09-20T12:42:03.683Z,78.20
2018-09-20T12:47:07.117Z,77.60
2018-09-20T12:52:10.397Z,77.30
2018-09-20T12:57:13.744Z,77.50
2018-09-20T13:02:17.159Z,77.40
2018-09-20T13:12:23.693Z,77.70
2018-09-20T13:17:27.016Z,76.20
2018-09-20T13:22:30.557Z,75.00
2018-09-20T13:27:33.872Z,74.50
2018-09-20T13:32:37.207Z,75.60
2018-09-20T13:37:40.624Z,75.60
2018-09-20T13:42:43.961Z,75.10
2018-09-20T13:47:47.437Z,71.80
2018-09-20T13:52:50.733Z,73.80
2018-09-20T13:57:54.351Z,71.70
2018-09-20T14:02:57.656Z,73.00
2018-09-20T14:08:00.989Z,73.10
2018-09-20T14:13:04.514Z,71.60
2018-09-20T14:18:08.085Z,73.50
2018-09-20T14:23:11.518Z,73.90
2018-09-20T14:28:14.857Z,72.90
2018-09-20T14:33:18.145Z,73.00
2018-09-20T14:38:21.440Z,73.50
2018-09-20T14:43:24.780Z,73.20
2018-09-20T14:48:28.085Z,73.20
2018-09-20T14:53:31.816Z,73.20
2018-09-20T14:58:35.979Z,73.90
2018-09-20T15:03:39.462Z,74.40
2018-09-20T15:08:42.742Z,74.70
2018-09-20T15:13:46.230Z,75.10
2018-09-20T15:18:49.536Z,76.00
2018-09-20T15:23:53.276Z,75.20
2018-09-20T15:28:56.829Z,76.10
2018-09-20T15:34:00.122Z,76.50
2018-09-20T15:39:05.213Z,76.20
2018-09-20T15:44:08.886Z,76.60
2018-09-20T15:49:12.277Z,77.00
2018-09-20T15:54:15.825Z,77.40
2018-09-20T15:59:19.105Z,77.20
2018-09-20T16:04:22.572Z,78.10
2018-09-20T16:09:25.969Z,78.70
2018-09-20T16:14:29.383Z,78.30
2018-09-20T16:19:32.701Z,78.00
2018-09-20T16:24:36.069Z,77.80
2018-09-20T16:29:47.457Z,78.70
2018-09-20T16:35:01.621Z,79.60
2018-09-20T16:40:05.157Z,80.70
2018-09-20T16:45:08.483Z,81.40
2018-09-20T16:50:11.772Z,81.90
2018-09-20T16:55:15.129Z,82.10
2018-09-20T17:05:21.763Z,83.40
2018-09-20T17:10:25.288Z,83.70
2018-09-20T17:15:28.914Z,84.30
2018-09-20T17:20:32.262Z,84.60
2018-09-20T17:25:35.634Z,85.40
2018-09-20T17:30:39.022Z,85.60
2018-09-20T17:35:42.837Z,86.50
2018-09-20T17:40:48.140Z,87.80
2018-09-20T17:45:52.225Z,88.70
2018-09-20T17:50:56.013Z,89.10
2018-09-20T17:56:00.421Z,89.00
2018-09-20T18:01:04.236Z,89.70
2018-09-20T18:06:07.650Z,90.10
2018-09-20T18:11:11.152Z,90.40
2018-09-20T18:16:14.609Z,90.40
2018-09-20T18:21:17.973Z,90.70
2018-09-20T18:26:21.413Z,91.10
2018-09-20T18:31:24.953Z,91.50
2018-09-20T18:36:29.577Z,91.60
2018-09-20T18:41:32.978Z,92.10
2018-09-20T18:46:36.587Z,91.90
2018-09-20T18:51:39.900Z,92.70
2018-09-20T18:56:43.540Z,92.80
2018-09-20T19:01:47.489Z,93.20
2018-09-20T19:06:50.829Z,93.00
2018-09-20T19:11:54.208Z,93.20
2018-09-20T19:16:58.530Z,93.30
2018-09-20T19:22:02.358Z,93.60
2018-09-20T19:27:05.920Z,94.00
2018-09-20T19:32:10.583Z,94.20
2018-09-20T19:37:13.903Z,94.20
2018-09-20T19:42:17.281Z,94.60
2018-09-20T19:47:20.567Z,94.20
2018-09-20T19:52:23.881Z,94.60
2018-09-20T19:57:27.550Z,95.40
2018-09-20T20:02:31.065Z,95.60
2018-09-20T20:12:37.556Z,95.20
2018-09-20T20:17:41.068Z,95.60
2018-09-20T20:22:44.477Z,95.40
2018-09-20T20:27:47.913Z,95.30
2018-09-20T20:32:51.477Z,95.50
2018-09-20T20:37:54.904Z,95.40
2018-09-20T20:43:01.071Z,95.60
2018-09-20T20:48:05.331Z,95.70
2018-09-20T20:53:09.011Z,95.60
2018-09-20T20:58:12.584Z,95.80
2018-09-20T21:03:15.880Z,95.30
2018-09-20T21:13:22.865Z,98.50
2018-09-20T21:18:26.200Z,98.60
2018-09-20T21:23:30.022Z,98.60
2018-09-20T21:28:33.627Z,98.90
2018-09-20T21:33:37.102Z,99.50
2018-09-20T21:38:40.673Z,99.90
2018-09-20T21:43:45.053Z,99.90
2018-09-20T21:48:48.333Z,99.90
2018-09-20T21:53:51.682Z,99.90
2018-09-20T21:58:55.109Z,99.90
2018-09-20T22:03:58.413Z,99.90
2018-09-20T22:09:01.919Z,99.20
2018-09-20T22:14:05.381Z,99.90
2018-09-20T22:19:08.881Z,99.90
2018-09-20T22:24:12.234Z,99.90
2018-09-20T22:29:15.533Z,99.90
2018-09-20T22:34:19.070Z,99.90
2018-09-20T22:39:22.410Z,99.90
2018-09-20T22:44:25.766Z,99.90
2018-09-20T22:49:29.268Z,99.90
2018-09-20T22:54:32.600Z,99.90
2018-09-20T22:59:35.981Z,99.90
2018-09-20T23:04:39.422Z,99.90
2018-09-20T23:09:42.836Z,99.90
2018-09-20T23:14:46.434Z,99.90
2018-09-20T23:19:49.883Z,99.90
2018-09-20T23:24:53.423Z,99.90
2018-09-20T23:29:56.787Z,99.90
2018-09-20T23:35:00.118Z,99.90
2018-09-20T23:40:03.811Z,99.90
2018-09-20T23:45:07.118Z,99.90
2018-09-20T23:50:10.869Z,99.90
2018-09-20T23:55:14.234Z,99.90
